sensor_id;sensor_type;location;lat;lon;timestamp;temperature;humidity
23147;DHT22;11742;53.532;-1.478;2022-08-19T00:01:36;24.00;64.30
23147;DHT22;11742;53.532;-1.478;2022-08-19T00:04:05;24.00;64.30
23147;DHT22;11742;53.532;-1.478;2022-08-19T00:06:31;24.00;64.30
23147;DHT22;11742;53.532;-1.478;2022-08-19T00:08:58;23.90;64.20
23147;DHT22;11742;53.532;-1.478;2022-08-19T00:11:25;24.00;64.30
23147;DHT22;11742;53.532;-1.478;2022-08-19T00:13:54;23.90;64.30
23147;DHT22;11742;53.532;-1.478;2022-08-19T00:16:20;23.90;64.30
23147;DHT22;11742;53.532;-1.478;2022-08-19T00:18:47;23.90;64.20
23147;DHT22;11742;53.532;-1.478;2022-08-19T00:21:13;23.90;64.30
23147;DHT22;11742;53.532;-1.478;2022-08-19T00:23:40;23.90;64.30
23147;DHT22;11742;53.532;-1.478;2022-08-19T00:26:06;23.90;64.30
23147;DHT22;11742;53.532;-1.478;2022-08-19T00:28:33;23.90;64.30
23147;DHT22;11742;53.532;-1.478;2022-08-19T00:31:05;23.90;64.30
23147;DHT22;11742;53.532;-1.478;2022-08-19T00:33:32;23.90;64.30
23147;DHT22;11742;53.532;-1.478;2022-08-19T00:35:59;23.90;64.30
23147;DHT22;11742;53.532;-1.478;2022-08-19T00:38:25;23.80;65.00
23147;DHT22;11742;53.532;-1.478;2022-08-19T00:40:51;23.80;64.10
23147;DHT22;11742;53.532;-1.478;2022-08-19T00:43:22;23.80;64.10
23147;DHT22;11742;53.532;-1.478;2022-08-19T00:45:49;23.80;64.10
23147;DHT22;11742;53.532;-1.478;2022-08-19T00:48:16;23.80;64.00
23147;DHT22;11742;53.532;-1.478;2022-08-19T00:50:43;23.70;64.00
23147;DHT22;11742;53.532;-1.478;2022-08-19T00:53:11;23.70;64.00
23147;DHT22;11742;53.532;-1.478;2022-08-19T00:55:37;23.70;63.90
23147;DHT22;11742;53.532;-1.478;2022-08-19T00:58:08;23.70;63.90
23147;DHT22;11742;53.532;-1.478;2022-08-19T01:00:36;23.70;63.90
23147;DHT22;11742;53.532;-1.478;2022-08-19T01:03:16;23.70;63.90
23147;DHT22;11742;53.532;-1.478;2022-08-19T01:05:44;23.60;63.80
23147;DHT22;11742;53.532;-1.478;2022-08-19T01:08:11;23.60;63.80
23147;DHT22;11742;53.532;-1.478;2022-08-19T01:10:43;23.60;63.90
23147;DHT22;11742;53.532;-1.478;2022-08-19T01:13:11;23.60;63.70
23147;DHT22;11742;53.532;-1.478;2022-08-19T01:15:43;23.60;63.70
23147;DHT22;11742;53.532;-1.478;2022-08-19T01:18:12;23.60;64.60
23147;DHT22;11742;53.532;-1.478;2022-08-19T01:20:40;23.50;63.60
23147;DHT22;11742;53.532;-1.478;2022-08-19T01:23:06;23.50;63.60
23147;DHT22;11742;53.532;-1.478;2022-08-19T01:25:45;23.50;63.50
23147;DHT22;11742;53.532;-1.478;2022-08-19T01:28:27;23.50;63.50
23147;DHT22;11742;53.532;-1.478;2022-08-19T01:30:54;23.50;63.50
23147;DHT22;11742;53.532;-1.478;2022-08-19T01:33:20;23.40;63.40
23147;DHT22;11742;53.532;-1.478;2022-08-19T01:35:47;23.40;63.40
23147;DHT22;11742;53.532;-1.478;2022-08-19T01:38:25;23.40;63.40
23147;DHT22;11742;53.532;-1.478;2022-08-19T01:40:52;23.40;63.40
23147;DHT22;11742;53.532;-1.478;2022-08-19T01:43:18;23.30;63.20
23147;DHT22;11742;53.532;-1.478;2022-08-19T01:45:45;23.30;63.20
23147;DHT22;11742;53.532;-1.478;2022-08-19T01:48:10;23.30;63.20
23147;DHT22;11742;53.532;-1.478;2022-08-19T01:50:37;23.30;63.20
23147;DHT22;11742;53.532;-1.478;2022-08-19T01:53:07;23.30;63.10
23147;DHT22;11742;53.532;-1.478;2022-08-19T01:55:38;23.30;63.10
23147;DHT22;11742;53.532;-1.478;2022-08-19T01:58:05;23.20;63.00
23147;DHT22;11742;53.532;-1.478;2022-08-19T02:00:33;23.20;63.00
23147;DHT22;11742;53.532;-1.478;2022-08-19T02:02:59;23.20;63.00
23147;DHT22;11742;53.532;-1.478;2022-08-19T02:05:26;23.10;62.90
23147;DHT22;11742;53.532;-1.478;2022-08-19T02:07:55;23.10;62.80
23147;DHT22;11742;53.532;-1.478;2022-08-19T02:10:22;23.10;62.80
23147;DHT22;11742;53.532;-1.478;2022-08-19T02:12:48;23.10;63.60
23147;DHT22;11742;53.532;-1.478;2022-08-19T02:15:15;23.10;63.60
23147;DHT22;11742;53.532;-1.478;2022-08-19T02:17:41;23.00;62.70
23147;DHT22;11742;53.532;-1.478;2022-08-19T02:20:07;23.00;62.60
23147;DHT22;11742;53.532;-1.478;2022-08-19T02:22:34;23.00;62.60
23147;DHT22;11742;53.532;-1.478;2022-08-19T02:25:01;22.90;62.50
23147;DHT22;11742;53.532;-1.478;2022-08-19T02:27:26;22.90;62.50
23147;DHT22;11742;53.532;-1.478;2022-08-19T02:29:52;22.90;62.50
23147;DHT22;11742;53.532;-1.478;2022-08-19T02:32:19;22.90;62.50
23147;DHT22;11742;53.532;-1.478;2022-08-19T02:34:46;22.90;63.40
23147;DHT22;11742;53.532;-1.478;2022-08-19T02:37:12;22.80;62.40
23147;DHT22;11742;53.532;-1.478;2022-08-19T02:39:56;22.80;62.40
23147;DHT22;11742;53.532;-1.478;2022-08-19T02:42:23;22.80;62.40
23147;DHT22;11742;53.532;-1.478;2022-08-19T02:44:49;22.80;62.40
23147;DHT22;11742;53.532;-1.478;2022-08-19T02:47:14;22.70;62.30
23147;DHT22;11742;53.532;-1.478;2022-08-19T02:49:41;22.70;62.30
23147;DHT22;11742;53.532;-1.478;2022-08-19T02:52:07;22.70;62.30
23147;DHT22;11742;53.532;-1.478;2022-08-19T02:54:33;22.70;62.30
23147;DHT22;11742;53.532;-1.478;2022-08-19T02:56:59;22.70;62.30
23147;DHT22;11742;53.532;-1.478;2022-08-19T02:59:25;22.60;62.30
23147;DHT22;11742;53.532;-1.478;2022-08-19T03:01:52;22.60;62.20
23147;DHT22;11742;53.532;-1.478;2022-08-19T03:04:18;22.60;62.20
23147;DHT22;11742;53.532;-1.478;2022-08-19T03:06:46;22.60;62.30
23147;DHT22;11742;53.532;-1.478;2022-08-19T03:09:13;22.50;62.20
23147;DHT22;11742;53.532;-1.478;2022-08-19T03:11:39;22.50;62.20
23147;DHT22;11742;53.532;-1.478;2022-08-19T03:14:07;22.50;62.20
23147;DHT22;11742;53.532;-1.478;2022-08-19T03:16:36;22.50;62.20
23147;DHT22;11742;53.532;-1.478;2022-08-19T03:19:05;22.50;62.20
23147;DHT22;11742;53.532;-1.478;2022-08-19T03:21:33;22.50;62.20
23147;DHT22;11742;53.532;-1.478;2022-08-19T03:24:02;22.40;62.20
23147;DHT22;11742;53.532;-1.478;2022-08-19T03:26:28;22.40;62.20
23147;DHT22;11742;53.532;-1.478;2022-08-19T03:28:54;22.40;62.20
23147;DHT22;11742;53.532;-1.478;2022-08-19T03:31:22;22.30;62.10
23147;DHT22;11742;53.532;-1.478;2022-08-19T03:33:50;22.30;62.20
23147;DHT22;11742;53.532;-1.478;2022-08-19T03:36:22;22.30;62.20
23147;DHT22;11742;53.532;-1.478;2022-08-19T03:38:56;22.30;62.20
23147;DHT22;11742;53.532;-1.478;2022-08-19T03:41:43;22.20;62.10
23147;DHT22;11742;53.532;-1.478;2022-08-19T03:44:09;22.30;62.20
23147;DHT22;11742;53.532;-1.478;2022-08-19T03:46:35;22.20;62.10
23147;DHT22;11742;53.532;-1.478;2022-08-19T03:49:03;22.10;62.20
23147;DHT22;11742;53.532;-1.478;2022-08-19T03:51:35;22.20;62.30
23147;DHT22;11742;53.532;-1.478;2022-08-19T03:54:03;22.10;62.20
23147;DHT22;11742;53.532;-1.478;2022-08-19T03:56:30;22.10;62.20
23147;DHT22;11742;53.532;-1.478;2022-08-19T03:58:57;22.10;62.20
23147;DHT22;11742;53.532;-1.478;2022-08-19T04:01:25;22.10;62.30
23147;DHT22;11742;53.532;-1.478;2022-08-19T04:03:52;22.00;62.20
23147;DHT22;11742;53.532;-1.478;2022-08-19T04:06:20;22.00;62.20
23147;DHT22;11742;53.532;-1.478;2022-08-19T04:08:49;22.00;62.20
23147;DHT22;11742;53.532;-1.478;2022-08-19T04:11:19;22.00;62.20
23147;DHT22;11742;53.532;-1.478;2022-08-19T04:13:49;21.90;62.20
23147;DHT22;11742;53.532;-1.478;2022-08-19T04:16:17;21.90;62.20
23147;DHT22;11742;53.532;-1.478;2022-08-19T04:18:44;21.90;62.20
23147;DHT22;11742;53.532;-1.478;2022-08-19T04:21:19;21.90;62.20
23147;DHT22;11742;53.532;-1.478;2022-08-19T04:23:46;21.80;62.30
23147;DHT22;11742;53.532;-1.478;2022-08-19T04:26:17;21.80;62.20
23147;DHT22;11742;53.532;-1.478;2022-08-19T04:28:44;21.80;62.30
23147;DHT22;11742;53.532;-1.478;2022-08-19T04:31:18;21.80;62.30
23147;DHT22;11742;53.532;-1.478;2022-08-19T04:33:44;21.80;62.40
23147;DHT22;11742;53.532;-1.478;2022-08-19T04:36:22;21.70;63.20
23147;DHT22;11742;53.532;-1.478;2022-08-19T04:38:49;21.70;62.30
23147;DHT22;11742;53.532;-1.478;2022-08-19T04:41:16;21.70;62.30
23147;DHT22;11742;53.532;-1.478;2022-08-19T04:44:00;21.70;62.30
23147;DHT22;11742;53.532;-1.478;2022-08-19T04:46:28;21.60;62.40
23147;DHT22;11742;53.532;-1.478;2022-08-19T04:48:58;21.60;62.40
23147;DHT22;11742;53.532;-1.478;2022-08-19T04:51:24;21.60;62.40
23147;DHT22;11742;53.532;-1.478;2022-08-19T04:53:51;21.60;62.40
23147;DHT22;11742;53.532;-1.478;2022-08-19T04:56:19;21.50;62.30
23147;DHT22;11742;53.532;-1.478;2022-08-19T04:58:48;21.50;62.40
23147;DHT22;11742;53.532;-1.478;2022-08-19T05:01:27;21.50;62.30
23147;DHT22;11742;53.532;-1.478;2022-08-19T05:04:02;21.50;62.30
23147;DHT22;11742;53.532;-1.478;2022-08-19T05:06:29;21.50;62.40
23147;DHT22;11742;53.532;-1.478;2022-08-19T05:08:56;21.40;62.30
23147;DHT22;11742;53.532;-1.478;2022-08-19T05:11:25;21.40;62.40
23147;DHT22;11742;53.532;-1.478;2022-08-19T05:13:51;21.40;62.30
23147;DHT22;11742;53.532;-1.478;2022-08-19T05:16:19;21.40;62.20
23147;DHT22;11742;53.532;-1.478;2022-08-19T05:18:46;21.30;62.20
23147;DHT22;11742;53.532;-1.478;2022-08-19T05:21:31;21.30;62.20
23147;DHT22;11742;53.532;-1.478;2022-08-19T05:24:16;21.30;62.20
23147;DHT22;11742;53.532;-1.478;2022-08-19T05:26:45;21.30;62.20
23147;DHT22;11742;53.532;-1.478;2022-08-19T05:29:13;21.20;62.10
23147;DHT22;11742;53.532;-1.478;2022-08-19T05:31:39;21.20;62.20
23147;DHT22;11742;53.532;-1.478;2022-08-19T05:34:05;21.20;62.10
23147;DHT22;11742;53.532;-1.478;2022-08-19T05:36:41;21.20;62.10
23147;DHT22;11742;53.532;-1.478;2022-08-19T05:39:11;21.20;62.10
23147;DHT22;11742;53.532;-1.478;2022-08-19T05:41:45;21.10;62.10
23147;DHT22;11742;53.532;-1.478;2022-08-19T05:44:12;21.10;62.10
23147;DHT22;11742;53.532;-1.478;2022-08-19T05:46:38;21.10;62.20
23147;DHT22;11742;53.532;-1.478;2022-08-19T05:49:05;21.10;62.20
23147;DHT22;11742;53.532;-1.478;2022-08-19T05:51:33;21.00;62.10
23147;DHT22;11742;53.532;-1.478;2022-08-19T05:54:11;21.00;62.20
23147;DHT22;11742;53.532;-1.478;2022-08-19T05:56:40;21.00;62.20
23147;DHT22;11742;53.532;-1.478;2022-08-19T05:59:08;21.00;62.20
23147;DHT22;11742;53.532;-1.478;2022-08-19T06:01:38;20.90;62.20
23147;DHT22;11742;53.532;-1.478;2022-08-19T06:04:05;20.90;62.10
23147;DHT22;11742;53.532;-1.478;2022-08-19T06:06:30;20.90;62.10
23147;DHT22;11742;53.532;-1.478;2022-08-19T06:08:56;20.90;62.20
23147;DHT22;11742;53.532;-1.478;2022-08-19T06:11:25;20.90;62.10
23147;DHT22;11742;53.532;-1.478;2022-08-19T06:14:01;20.90;62.10
23147;DHT22;11742;53.532;-1.478;2022-08-19T06:16:27;20.80;62.10
23147;DHT22;11742;53.532;-1.478;2022-08-19T06:18:54;20.80;62.10
23147;DHT22;11742;53.532;-1.478;2022-08-19T06:21:23;20.80;62.10
23147;DHT22;11742;53.532;-1.478;2022-08-19T06:23:50;20.80;62.10
23147;DHT22;11742;53.532;-1.478;2022-08-19T06:26:17;20.80;62.10
23147;DHT22;11742;53.532;-1.478;2022-08-19T06:28:44;20.80;62.10
23147;DHT22;11742;53.532;-1.478;2022-08-19T06:31:13;20.80;62.20
23147;DHT22;11742;53.532;-1.478;2022-08-19T06:33:40;20.80;62.10
23147;DHT22;11742;53.532;-1.478;2022-08-19T06:36:06;20.80;62.20
23147;DHT22;11742;53.532;-1.478;2022-08-19T06:38:32;20.80;62.20
23147;DHT22;11742;53.532;-1.478;2022-08-19T06:41:04;20.80;62.20
23147;DHT22;11742;53.532;-1.478;2022-08-19T06:43:30;20.80;62.30
23147;DHT22;11742;53.532;-1.478;2022-08-19T06:45:56;20.70;62.20
23147;DHT22;11742;53.532;-1.478;2022-08-19T06:48:22;20.80;62.20
23147;DHT22;11742;53.532;-1.478;2022-08-19T06:50:47;20.70;62.20
23147;DHT22;11742;53.532;-1.478;2022-08-19T06:53:15;20.80;62.30
23147;DHT22;11742;53.532;-1.478;2022-08-19T06:55:41;20.70;62.20
23147;DHT22;11742;53.532;-1.478;2022-08-19T06:58:06;20.80;62.30
23147;DHT22;11742;53.532;-1.478;2022-08-19T07:00:32;20.80;62.30
23147;DHT22;11742;53.532;-1.478;2022-08-19T07:02:58;20.80;62.30
23147;DHT22;11742;53.532;-1.478;2022-08-19T07:05:25;20.80;62.30
23147;DHT22;11742;53.532;-1.478;2022-08-19T07:07:51;20.80;62.30
23147;DHT22;11742;53.532;-1.478;2022-08-19T07:10:17;20.80;62.40
23147;DHT22;11742;53.532;-1.478;2022-08-19T07:12:43;20.80;62.30
23147;DHT22;11742;53.532;-1.478;2022-08-19T07:15:10;20.80;62.30
23147;DHT22;11742;53.532;-1.478;2022-08-19T07:17:36;20.80;62.50
23147;DHT22;11742;53.532;-1.478;2022-08-19T07:20:06;20.80;62.30
23147;DHT22;11742;53.532;-1.478;2022-08-19T07:22:35;20.90;62.40
23147;DHT22;11742;53.532;-1.478;2022-08-19T07:25:01;20.90;62.40
23147;DHT22;11742;53.532;-1.478;2022-08-19T07:27:29;20.90;62.40
23147;DHT22;11742;53.532;-1.478;2022-08-19T07:29:55;20.90;62.40
23147;DHT22;11742;53.532;-1.478;2022-08-19T07:32:20;20.90;62.50
23147;DHT22;11742;53.532;-1.478;2022-08-19T07:34:46;21.00;62.70
23147;DHT22;11742;53.532;-1.478;2022-08-19T07:37:12;21.00;63.70
23147;DHT22;11742;53.532;-1.478;2022-08-19T07:39:38;21.00;62.90
23147;DHT22;11742;53.532;-1.478;2022-08-19T07:42:07;21.00;62.90
23147;DHT22;11742;53.532;-1.478;2022-08-19T07:44:33;21.10;63.20
23147;DHT22;11742;53.532;-1.478;2022-08-19T07:46:59;21.10;63.20
23147;DHT22;11742;53.532;-1.478;2022-08-19T07:49:26;21.20;63.40
23147;DHT22;11742;53.532;-1.478;2022-08-19T07:51:53;21.20;63.40
23147;DHT22;11742;53.532;-1.478;2022-08-19T07:54:22;21.20;63.50
23147;DHT22;11742;53.532;-1.478;2022-08-19T07:56:48;21.30;63.60
23147;DHT22;11742;53.532;-1.478;2022-08-19T07:59:15;21.30;63.70
23147;DHT22;11742;53.532;-1.478;2022-08-19T08:01:43;21.40;63.80
23147;DHT22;11742;53.532;-1.478;2022-08-19T08:04:10;21.40;63.80
23147;DHT22;11742;53.532;-1.478;2022-08-19T08:06:54;21.40;63.90
23147;DHT22;11742;53.532;-1.478;2022-08-19T08:09:41;21.50;63.90
23147;DHT22;11742;53.532;-1.478;2022-08-19T08:12:17;21.50;64.00
23147;DHT22;11742;53.532;-1.478;2022-08-19T08:14:52;21.60;64.00
23147;DHT22;11742;53.532;-1.478;2022-08-19T08:17:20;21.60;64.10
23147;DHT22;11742;53.532;-1.478;2022-08-19T08:19:47;21.70;64.10
23147;DHT22;11742;53.532;-1.478;2022-08-19T08:22:17;21.70;64.10
23147;DHT22;11742;53.532;-1.478;2022-08-19T08:25:14;21.80;64.30
23147;DHT22;11742;53.532;-1.478;2022-08-19T08:27:42;21.80;64.10
23147;DHT22;11742;53.532;-1.478;2022-08-19T08:30:15;21.80;64.10
23147;DHT22;11742;53.532;-1.478;2022-08-19T08:32:41;21.90;64.20
23147;DHT22;11742;53.532;-1.478;2022-08-19T08:35:11;22.00;64.20
23147;DHT22;11742;53.532;-1.478;2022-08-19T08:37:37;22.00;64.10
23147;DHT22;11742;53.532;-1.478;2022-08-19T08:40:14;22.10;64.20
23147;DHT22;11742;53.532;-1.478;2022-08-19T08:42:49;22.10;64.20
23147;DHT22;11742;53.532;-1.478;2022-08-19T08:45:17;22.20;64.20
23147;DHT22;11742;53.532;-1.478;2022-08-19T08:47:47;22.30;64.20
23147;DHT22;11742;53.532;-1.478;2022-08-19T08:50:31;22.30;64.30
23147;DHT22;11742;53.532;-1.478;2022-08-19T08:53:01;22.40;64.30
23147;DHT22;11742;53.532;-1.478;2022-08-19T08:55:29;22.40;64.20
23147;DHT22;11742;53.532;-1.478;2022-08-19T08:58:06;22.50;64.30
23147;DHT22;11742;53.532;-1.478;2022-08-19T09:00:37;22.50;64.30
23147;DHT22;11742;53.532;-1.478;2022-08-19T09:03:09;22.60;64.30
23147;DHT22;11742;53.532;-1.478;2022-08-19T09:10:56;22.70;64.20
23147;DHT22;11742;53.532;-1.478;2022-08-19T09:13:56;22.80;64.20
23147;DHT22;11742;53.532;-1.478;2022-08-19T09:16:27;22.80;64.00
23147;DHT22;11742;53.532;-1.478;2022-08-19T09:19:00;22.90;64.00
23147;DHT22;11742;53.532;-1.478;2022-08-19T09:21:27;22.90;63.90
23147;DHT22;11742;53.532;-1.478;2022-08-19T09:23:53;22.90;63.90
23147;DHT22;11742;53.532;-1.478;2022-08-19T09:26:22;23.00;63.90
23147;DHT22;11742;53.532;-1.478;2022-08-19T09:28:50;23.00;63.70
23147;DHT22;11742;53.532;-1.478;2022-08-19T09:31:19;23.10;63.50
23147;DHT22;11742;53.532;-1.478;2022-08-19T09:33:47;23.10;63.50
23147;DHT22;11742;53.532;-1.478;2022-08-19T09:36:16;23.20;63.60
23147;DHT22;11742;53.532;-1.478;2022-08-19T09:38:42;23.20;63.60
23147;DHT22;11742;53.532;-1.478;2022-08-19T09:41:11;23.30;63.50
23147;DHT22;11742;53.532;-1.478;2022-08-19T09:43:39;23.30;63.50
23147;DHT22;11742;53.532;-1.478;2022-08-19T09:46:07;23.30;63.40
23147;DHT22;11742;53.532;-1.478;2022-08-19T09:48:35;23.30;63.30
23147;DHT22;11742;53.532;-1.478;2022-08-19T09:51:14;23.30;63.30
23147;DHT22;11742;53.532;-1.478;2022-08-19T09:53:44;23.40;63.00
23147;DHT22;11742;53.532;-1.478;2022-08-19T09:56:11;23.40;62.80
23147;DHT22;11742;53.532;-1.478;2022-08-19T09:58:38;23.40;62.80
23147;DHT22;11742;53.532;-1.478;2022-08-19T10:01:05;23.40;62.80
23147;DHT22;11742;53.532;-1.478;2022-08-19T10:03:33;23.40;62.80
23147;DHT22;11742;53.532;-1.478;2022-08-19T10:06:02;23.40;62.80
23147;DHT22;11742;53.532;-1.478;2022-08-19T10:08:31;23.50;62.80
23147;DHT22;11742;53.532;-1.478;2022-08-19T10:10:58;23.50;62.80
23147;DHT22;11742;53.532;-1.478;2022-08-19T10:13:26;23.50;62.70
23147;DHT22;11742;53.532;-1.478;2022-08-19T10:15:54;23.50;62.70
23147;DHT22;11742;53.532;-1.478;2022-08-19T10:18:23;23.60;62.70
23147;DHT22;11742;53.532;-1.478;2022-08-19T10:20:50;23.60;62.60
23147;DHT22;11742;53.532;-1.478;2022-08-19T10:23:18;23.60;62.70
23147;DHT22;11742;53.532;-1.478;2022-08-19T10:25:45;23.60;62.70
23147;DHT22;11742;53.532;-1.478;2022-08-19T10:28:11;23.70;62.80
23147;DHT22;11742;53.532;-1.478;2022-08-19T10:30:38;23.70;62.80
23147;DHT22;11742;53.532;-1.478;2022-08-19T10:33:05;23.70;62.80
23147;DHT22;11742;53.532;-1.478;2022-08-19T10:35:31;23.70;62.80
23147;DHT22;11742;53.532;-1.478;2022-08-19T10:37:57;23.70;62.80
23147;DHT22;11742;53.532;-1.478;2022-08-19T10:40:28;23.70;62.70
23147;DHT22;11742;53.532;-1.478;2022-08-19T10:42:54;23.70;62.80
23147;DHT22;11742;53.532;-1.478;2022-08-19T10:45:24;23.80;62.70
23147;DHT22;11742;53.532;-1.478;2022-08-19T10:47:52;23.80;62.70
23147;DHT22;11742;53.532;-1.478;2022-08-19T10:50:18;23.80;62.70
23147;DHT22;11742;53.532;-1.478;2022-08-19T10:53:16;23.80;62.70
23147;DHT22;11742;53.532;-1.478;2022-08-19T10:55:44;23.80;62.60
23147;DHT22;11742;53.532;-1.478;2022-08-19T10:58:29;23.90;62.60
23147;DHT22;11742;53.532;-1.478;2022-08-19T11:00:57;23.90;62.60
23147;DHT22;11742;53.532;-1.478;2022-08-19T11:03:25;23.90;62.70
23147;DHT22;11742;53.532;-1.478;2022-08-19T11:06:04;23.90;62.70
23147;DHT22;11742;53.532;-1.478;2022-08-19T11:08:30;23.90;62.60
23147;DHT22;11742;53.532;-1.478;2022-08-19T11:10:59;24.00;62.60
23147;DHT22;11742;53.532;-1.478;2022-08-19T11:13:36;24.00;62.60
23147;DHT22;11742;53.532;-1.478;2022-08-19T11:18:28;24.10;62.60
23147;DHT22;11742;53.532;-1.478;2022-08-19T11:20:54;24.10;62.60
23147;DHT22;11742;53.532;-1.478;2022-08-19T11:23:20;24.10;62.60
23147;DHT22;11742;53.532;-1.478;2022-08-19T11:25:46;24.20;62.50
23147;DHT22;11742;53.532;-1.478;2022-08-19T11:28:12;24.20;62.50
23147;DHT22;11742;53.532;-1.478;2022-08-19T11:30:38;24.20;62.50
23147;DHT22;11742;53.532;-1.478;2022-08-19T11:33:04;24.20;62.50
23147;DHT22;11742;53.532;-1.478;2022-08-19T11:35:30;24.30;62.50
23147;DHT22;11742;53.532;-1.478;2022-08-19T11:37:56;24.30;62.40
23147;DHT22;11742;53.532;-1.478;2022-08-19T11:40:24;24.30;62.30
23147;DHT22;11742;53.532;-1.478;2022-08-19T11:42:50;24.40;62.30
23147;DHT22;11742;53.532;-1.478;2022-08-19T11:45:23;24.40;62.20
23147;DHT22;11742;53.532;-1.478;2022-08-19T11:47:49;24.40;62.00
23147;DHT22;11742;53.532;-1.478;2022-08-19T11:50:15;24.50;61.80
23147;DHT22;11742;53.532;-1.478;2022-08-19T11:52:42;24.60;61.90
23147;DHT22;11742;53.532;-1.478;2022-08-19T11:55:09;24.50;61.50
23147;DHT22;11742;53.532;-1.478;2022-08-19T11:57:35;24.60;61.50
23147;DHT22;11742;53.532;-1.478;2022-08-19T12:00:00;24.60;61.40
23147;DHT22;11742;53.532;-1.478;2022-08-19T12:02:27;24.60;61.50
23147;DHT22;11742;53.532;-1.478;2022-08-19T12:04:52;24.70;61.40
23147;DHT22;11742;53.532;-1.478;2022-08-19T12:07:19;24.70;61.40
23147;DHT22;11742;53.532;-1.478;2022-08-19T12:09:44;24.70;61.30
23147;DHT22;11742;53.532;-1.478;2022-08-19T12:12:10;24.70;61.20
23147;DHT22;11742;53.532;-1.478;2022-08-19T12:14:36;24.70;61.10
23147;DHT22;11742;53.532;-1.478;2022-08-19T12:17:02;24.70;61.00
23147;DHT22;11742;53.532;-1.478;2022-08-19T12:19:30;24.80;61.00
23147;DHT22;11742;53.532;-1.478;2022-08-19T12:21:59;24.80;60.90
23147;DHT22;11742;53.532;-1.478;2022-08-19T12:24:32;24.80;60.90
23147;DHT22;11742;53.532;-1.478;2022-08-19T12:26:58;24.80;60.80
23147;DHT22;11742;53.532;-1.478;2022-08-19T12:29:27;24.80;60.80
23147;DHT22;11742;53.532;-1.478;2022-08-19T12:31:54;24.80;60.70
23147;DHT22;11742;53.532;-1.478;2022-08-19T12:34:26;24.80;60.70
23147;DHT22;11742;53.532;-1.478;2022-08-19T12:36:56;24.80;60.60
23147;DHT22;11742;53.532;-1.478;2022-08-19T12:39:21;24.80;60.50
23147;DHT22;11742;53.532;-1.478;2022-08-19T12:41:47;24.80;60.50
23147;DHT22;11742;53.532;-1.478;2022-08-19T12:44:14;24.80;60.40
23147;DHT22;11742;53.532;-1.478;2022-08-19T12:46:40;24.80;60.30
23147;DHT22;11742;53.532;-1.478;2022-08-19T12:49:06;24.80;57.80
23147;DHT22;11742;53.532;-1.478;2022-08-19T12:51:31;24.70;56.30
23147;DHT22;11742;53.532;-1.478;2022-08-19T12:53:57;24.60;56.60
23147;DHT22;11742;53.532;-1.478;2022-08-19T12:56:23;24.60;57.20
23147;DHT22;11742;53.532;-1.478;2022-08-19T12:58:49;24.60;57.60
23147;DHT22;11742;53.532;-1.478;2022-08-19T13:01:16;24.60;57.80
23147;DHT22;11742;53.532;-1.478;2022-08-19T13:03:42;24.60;58.00
23147;DHT22;11742;53.532;-1.478;2022-08-19T13:06:11;24.70;58.10
23147;DHT22;11742;53.532;-1.478;2022-08-19T13:08:37;24.70;58.20
23147;DHT22;11742;53.532;-1.478;2022-08-19T13:11:12;24.70;58.30
23147;DHT22;11742;53.532;-1.478;2022-08-19T13:13:40;24.80;58.40
23147;DHT22;11742;53.532;-1.478;2022-08-19T13:16:08;24.80;58.40
23147;DHT22;11742;53.532;-1.478;2022-08-19T13:18:35;24.80;58.40
23147;DHT22;11742;53.532;-1.478;2022-08-19T13:21:05;24.80;58.40
23147;DHT22;11742;53.532;-1.478;2022-08-19T13:23:32;24.90;58.50
23147;DHT22;11742;53.532;-1.478;2022-08-19T13:25:59;24.80;58.50
23147;DHT22;11742;53.532;-1.478;2022-08-19T13:28:25;24.90;58.50
23147;DHT22;11742;53.532;-1.478;2022-08-19T13:30:51;24.90;58.50
23147;DHT22;11742;53.532;-1.478;2022-08-19T13:33:35;24.90;58.60
23147;DHT22;11742;53.532;-1.478;2022-08-19T13:36:01;24.90;58.60
23147;DHT22;11742;53.532;-1.478;2022-08-19T13:38:27;24.90;58.60
23147;DHT22;11742;53.532;-1.478;2022-08-19T13:40:55;24.90;58.60
23147;DHT22;11742;53.532;-1.478;2022-08-19T13:43:23;25.00;58.70
23147;DHT22;11742;53.532;-1.478;2022-08-19T13:45:53;25.00;58.70
23147;DHT22;11742;53.532;-1.478;2022-08-19T13:48:21;25.00;58.80
23147;DHT22;11742;53.532;-1.478;2022-08-19T13:50:47;25.00;58.80
23147;DHT22;11742;53.532;-1.478;2022-08-19T13:53:14;25.00;58.80
23147;DHT22;11742;53.532;-1.478;2022-08-19T13:55:41;25.00;58.80
23147;DHT22;11742;53.532;-1.478;2022-08-19T13:58:09;25.00;58.80
23147;DHT22;11742;53.532;-1.478;2022-08-19T14:00:43;25.00;58.80
23147;DHT22;11742;53.532;-1.478;2022-08-19T14:03:09;25.00;58.70
23147;DHT22;11742;53.532;-1.478;2022-08-19T14:05:36;25.10;58.80
23147;DHT22;11742;53.532;-1.478;2022-08-19T14:08:02;25.10;58.80
23147;DHT22;11742;53.532;-1.478;2022-08-19T14:10:28;25.10;58.70
23147;DHT22;11742;53.532;-1.478;2022-08-19T14:12:57;25.10;58.70
23147;DHT22;11742;53.532;-1.478;2022-08-19T14:15:24;25.10;58.70
23147;DHT22;11742;53.532;-1.478;2022-08-19T14:17:50;25.20;58.80
23147;DHT22;11742;53.532;-1.478;2022-08-19T14:20:17;25.20;58.80
23147;DHT22;11742;53.532;-1.478;2022-08-19T14:22:43;25.20;58.70
23147;DHT22;11742;53.532;-1.478;2022-08-19T14:25:12;25.20;58.70
23147;DHT22;11742;53.532;-1.478;2022-08-19T14:27:40;25.20;58.70
23147;DHT22;11742;53.532;-1.478;2022-08-19T14:30:08;25.20;58.70
23147;DHT22;11742;53.532;-1.478;2022-08-19T14:32:34;25.20;58.70
23147;DHT22;11742;53.532;-1.478;2022-08-19T14:35:01;25.20;58.70
23147;DHT22;11742;53.532;-1.478;2022-08-19T14:37:27;25.30;58.70
23147;DHT22;11742;53.532;-1.478;2022-08-19T14:39:53;25.30;58.70
23147;DHT22;11742;53.532;-1.478;2022-08-19T14:42:19;25.30;58.70
23147;DHT22;11742;53.532;-1.478;2022-08-19T14:44:45;25.30;58.60
23147;DHT22;11742;53.532;-1.478;2022-08-19T14:47:11;25.30;58.60
23147;DHT22;11742;53.532;-1.478;2022-08-19T14:49:37;25.40;58.70
23147;DHT22;11742;53.532;-1.478;2022-08-19T14:52:03;25.40;58.60
23147;DHT22;11742;53.532;-1.478;2022-08-19T14:54:29;25.40;58.60
23147;DHT22;11742;53.532;-1.478;2022-08-19T14:56:55;25.40;58.10
23147;DHT22;11742;53.532;-1.478;2022-08-19T14:59:21;25.40;58.10
23147;DHT22;11742;53.532;-1.478;2022-08-19T15:01:47;25.40;58.20
23147;DHT22;11742;53.532;-1.478;2022-08-19T15:04:12;25.40;58.10
23147;DHT22;11742;53.532;-1.478;2022-08-19T15:06:38;25.40;57.00
23147;DHT22;11742;53.532;-1.478;2022-08-19T15:09:05;25.30;57.10
23147;DHT22;11742;53.532;-1.478;2022-08-19T15:11:31;25.30;57.40
23147;DHT22;11742;53.532;-1.478;2022-08-19T15:13:58;25.30;57.60
23147;DHT22;11742;53.532;-1.478;2022-08-19T15:16:24;25.30;57.70
23147;DHT22;11742;53.532;-1.478;2022-08-19T15:18:53;25.30;57.90
23147;DHT22;11742;53.532;-1.478;2022-08-19T15:21:20;25.40;58.00
23147;DHT22;11742;53.532;-1.478;2022-08-19T15:23:46;25.40;58.10
23147;DHT22;11742;53.532;-1.478;2022-08-19T15:26:14;25.40;58.10
23147;DHT22;11742;53.532;-1.478;2022-08-19T15:28:40;25.40;58.10
23147;DHT22;11742;53.532;-1.478;2022-08-19T15:31:07;25.40;58.10